Time;durP1;ratioP1;P1;durP2;ratioP2;P2;SDS_P1;SDS_P2;PMS_P1;PMS_P2;Temp;Humidity;BMP_temperature;BMP_pressure;BME280_temperature;BME280_humidity;BME280_pressure;Samples;Min_cycle;Max_cycle;Signal;HPM_P1;HPM_P2
2023/01/27 00:00:49;;;;;;;7.00;3.90;;;3.20;99.90;;;;;;4980887;29;20439;-51
2023/01/27 00:03:18;;;;;;;7.83;4.80;;;2.30;99.90;;;;;;4980549;29;20475;-48
2023/01/27 00:05:45;;;;;;;8.07;4.67;;;2.30;99.90;;;;;;4981082;29;20451;-58
2023/01/27 00:08:12;;;;;;;12.33;5.50;;;2.30;99.90;;;;;;4980608;29;20447;-53
2023/01/27 00:10:39;;;;;;;7.20;4.03;;;2.30;99.90;;;;;;4979995;29;20467;-55
2023/01/27 00:15:50;;;;;;;8.67;4.40;;;2.30;99.90;;;;;;4980558;29;20491;-53
2023/01/27 00:18:19;;;;;;;8.43;5.63;;;2.30;99.90;;;;;;4980865;29;20431;-57
2023/01/27 00:26:19;;;;;;;10.90;5.20;;;2.30;99.90;;;;;;4979957;29;20431;-51
2023/01/27 00:28:48;;;;;;;9.50;4.70;;;2.20;99.90;;;;;;4980287;29;20507;-48
2023/01/27 00:34:08;;;;;;;8.70;4.53;;;2.30;99.90;;;;;;4979612;29;20457;-50
2023/01/27 00:36:36;;;;;;;8.17;3.93;;;2.20;99.90;;;;;;4979965;29;20464;-49
2023/01/27 00:39:03;;;;;;;8.40;4.70;;;2.20;99.90;;;;;;4979611;29;20448;-50
2023/01/27 00:41:32;;;;;;;14.47;5.60;;;2.20;99.90;;;;;;4979391;29;20427;-48
2023/01/27 00:43:59;;;;;;;6.40;4.80;;;2.20;99.90;;;;;;4979965;29;20504;-49
2023/01/27 00:46:26;;;;;;;9.40;4.60;;;2.20;99.90;;;;;;4979720;29;20491;-49
2023/01/27 00:48:54;;;;;;;11.40;4.30;;;2.20;99.90;;;;;;4979398;29;20547;-52
2023/01/27 00:51:23;;;;;;;8.73;4.73;;;2.20;99.90;;;;;;4979556;29;20439;-49
2023/01/27 00:53:50;;;;;;;12.73;4.60;;;2.20;99.90;;;;;;4979510;29;20472;-54
2023/01/27 00:56:17;;;;;;;15.53;5.90;;;2.20;99.90;;;;;;4979824;29;20495;-49
2023/01/27 00:58:44;;;;;;;8.83;4.57;;;2.20;99.90;;;;;;4979339;29;20531;-50
2023/01/27 01:01:13;;;;;;;13.63;6.10;;;2.20;99.90;;;;;;4979230;29;20427;-55
2023/01/27 01:03:40;;;;;;;8.67;3.87;;;2.30;99.90;;;;;;4978344;28;20475;-53
2023/01/27 01:06:09;;;;;;;13.43;5.13;;;2.30;99.90;;;;;;4979526;29;20424;-56
2023/01/27 01:08:38;;;;;;;10.50;4.07;;;2.30;99.90;;;;;;4979662;29;20428;-53
2023/01/27 01:11:06;;;;;;;9.17;4.00;;;2.30;99.90;;;;;;4979164;29;20495;-53
2023/01/27 01:13:33;;;;;;;13.57;5.50;;;2.30;99.90;;;;;;4979129;29;20644;-53
2023/01/27 01:16:06;;;;;;;11.30;5.60;;;2.30;99.90;;;;;;4979439;29;20487;-56
2023/01/27 01:18:33;;;;;;;14.70;5.50;;;2.30;99.90;;;;;;4979575;29;20429;-59
2023/01/27 01:21:00;;;;;;;6.73;3.73;;;2.30;99.90;;;;;;4979176;29;20468;-51
2023/01/27 01:23:26;;;;;;;9.43;5.60;;;2.30;99.90;;;;;;4979425;29;20444;-51
2023/01/27 01:25:56;;;;;;;13.70;6.13;;;2.20;99.90;;;;;;4979264;29;20451;-58
2023/01/27 01:28:26;;;;;;;10.60;5.53;;;2.30;99.90;;;;;;4979145;29;20488;-60
2023/01/27 01:30:55;;;;;;;14.43;5.90;;;2.30;99.90;;;;;;4978977;29;20913;-57
2023/01/27 01:33:22;;;;;;;6.80;3.70;;;2.20;99.90;;;;;;4978874;29;20467;-56
2023/01/27 01:35:49;;;;;;;9.17;4.80;;;2.20;99.90;;;;;;4978501;29;20498;-56
2023/01/27 01:38:16;;;;;;;10.40;4.63;;;2.20;99.90;;;;;;4978925;29;20444;-57
2023/01/27 01:40:44;;;;;;;14.00;6.00;;;2.20;99.90;;;;;;4978411;29;20464;-58
2023/01/27 01:43:17;;;;;;;10.70;4.53;;;2.20;99.90;;;;;;4978565;29;20486;-57
2023/01/27 01:45:48;;;;;;;10.27;5.40;;;2.20;99.90;;;;;;4979067;29;20473;-56
2023/01/27 01:48:19;;;;;;;10.53;4.77;;;2.20;99.90;;;;;;4978348;29;20436;-55
2023/01/27 01:50:51;;;;;;;10.10;5.10;;;2.20;99.90;;;;;;4978419;29;20432;-57
2023/01/27 01:53:20;;;;;;;11.33;7.63;;;2.20;99.90;;;;;;4978222;29;20510;-55
2023/01/27 01:55:48;;;;;;;10.37;5.53;;;2.20;99.90;;;;;;4978030;29;20574;-56
2023/01/27 01:58:19;;;;;;;12.70;5.57;;;2.30;99.90;;;;;;4978094;29;20455;-57
2023/01/27 02:00:46;;;;;;;7.83;6.20;;;2.30;99.90;;;;;;4978047;29;20519;-54
2023/01/27 02:03:16;;;;;;;13.87;5.80;;;2.30;99.90;;;;;;4978368;29;20898;-57
2023/01/27 02:05:45;;;;;;;10.67;4.30;;;2.30;99.90;;;;;;4978269;29;20522;-54
2023/01/27 02:08:16;;;;;;;13.10;6.00;;;2.30;99.90;;;;;;4978497;29;20440;-56
2023/01/27 02:10:43;;;;;;;11.70;6.57;;;2.30;99.90;;;;;;4978151;29;20456;-59
2023/01/27 02:13:10;;;;;;;8.80;4.87;;;2.30;99.90;;;;;;4978364;29;20431;-56
2023/01/27 02:15:39;;;;;;;12.17;5.50;;;2.30;99.90;;;;;;4978010;28;20479;-57
2023/01/27 02:18:07;;;;;;;13.83;5.80;;;2.30;99.90;;;;;;4978252;29;20488;-56
2023/01/27 02:20:41;;;;;;;15.50;6.03;;;2.30;99.90;;;;;;4977866;29;20448;-53
2023/01/27 02:23:22;;;;;;;11.70;4.93;;;2.40;99.90;;;;;;4977641;29;20890;-56
2023/01/27 02:25:56;;;;;;;12.03;6.50;;;2.30;99.90;;;;;;4977927;29;20425;-59
2023/01/27 02:28:27;;;;;;;15.03;5.63;;;2.40;99.90;;;;;;4978256;29;20442;-58
2023/01/27 02:30:54;;;;;;;20.33;6.10;;;2.40;99.90;;;;;;4978190;29;20491;-57
2023/01/27 02:33:20;;;;;;;7.97;5.00;;;2.40;99.90;;;;;;4978012;29;20448;-58
2023/01/27 02:35:54;;;;;;;8.80;5.20;;;2.40;99.90;;;;;;4977388;29;20483;-55
2023/01/27 02:38:22;;;;;;;10.00;5.60;;;2.40;99.90;;;;;;4978177;29;20416;-58
2023/01/27 02:40:54;;;;;;;13.13;5.67;;;2.40;99.90;;;;;;4977776;29;20455;-53
2023/01/27 02:43:21;;;;;;;8.57;4.17;;;2.40;99.90;;;;;;4978112;29;20435;-56
2023/01/27 02:45:48;;;;;;;10.80;5.10;;;2.40;99.90;;;;;;4978045;29;20479;-58
2023/01/27 02:48:15;;;;;;;13.90;4.67;;;2.40;99.90;;;;;;4977552;29;20467;-57
2023/01/27 02:50:42;;;;;;;15.90;5.00;;;2.40;99.90;;;;;;4977533;29;20475;-55
2023/01/27 02:53:09;;;;;;;9.17;5.60;;;2.40;99.90;;;;;;4977424;29;20468;-55
2023/01/27 02:55:36;;;;;;;11.57;5.10;;;2.50;99.90;;;;;;4977591;29;20498;-57
2023/01/27 02:58:04;;;;;;;12.87;5.40;;;2.50;99.90;;;;;;4977523;29;20451;-54
2023/01/27 03:00:31;;;;;;;13.70;6.07;;;2.50;99.90;;;;;;4977812;29;20539;-55
2023/01/27 03:02:58;;;;;;;11.67;5.40;;;2.50;99.90;;;;;;4977592;29;20448;-58
2023/01/27 03:05:24;;;;;;;12.43;4.87;;;2.50;99.90;;;;;;4977664;29;20480;-57
2023/01/27 03:07:53;;;;;;;6.20;4.50;;;2.50;99.90;;;;;;4977265;29;20528;-56
2023/01/27 03:10:20;;;;;;;12.30;5.73;;;2.50;99.90;;;;;;4977290;29;20765;-57
2023/01/27 03:12:47;;;;;;;14.10;6.70;;;2.50;99.90;;;;;;4977865;29;20474;-56
2023/01/27 03:18:16;;;;;;;11.27;6.07;;;2.60;99.90;;;;;;4977004;29;20387;-55
2023/01/27 03:20:44;;;;;;;10.27;5.30;;;2.60;99.90;;;;;;4977158;29;20476;-54
2023/01/27 03:23:11;;;;;;;5.43;3.20;;;2.60;99.90;;;;;;4977515;29;20451;-57
2023/01/27 03:25:41;;;;;;;9.57;4.33;;;2.60;99.90;;;;;;4976975;29;20443;-58
2023/01/27 03:28:10;;;;;;;8.53;5.13;;;2.60;99.90;;;;;;4979898;28;20476;-57
2023/01/27 03:30:38;;;;;;;5.70;4.07;;;2.60;99.90;;;;;;4981365;29;20463;-57
2023/01/27 03:33:06;;;;;;;7.10;4.67;;;2.60;99.90;;;;;;4981537;29;20439;-55
2023/01/27 03:35:37;;;;;;;9.10;4.83;;;2.60;99.90;;;;;;4981126;29;20464;-58
2023/01/27 03:46:21;;;;;;;12.83;4.57;;;2.60;99.90;;;;;;4980777;29;20407;-57
2023/01/27 03:48:50;;;;;;;8.90;3.80;;;2.60;99.90;;;;;;4980877;29;20458;-58
2023/01/27 03:51:18;;;;;;;14.00;7.07;;;2.60;99.90;;;;;;4980778;29;20447;-54
2023/01/27 03:53:46;;;;;;;9.13;4.20;;;2.60;99.90;;;;;;4980251;29;20918;-57
2023/01/27 03:56:13;;;;;;;7.80;4.20;;;2.60;99.90;;;;;;4980274;29;20491;-57
2023/01/27 03:58:41;;;;;;;8.63;4.47;;;2.60;99.90;;;;;;4980171;29;20487;-58
2023/01/27 04:01:14;;;;;;;11.70;5.97;;;2.60;99.90;;;;;;4980570;29;20475;-55
2023/01/27 04:09:19;;;;;;;5.10;3.20;;;2.60;99.90;;;;;;4980653;29;20451;-55
2023/01/27 04:11:54;;;;;;;10.00;5.17;;;2.60;99.90;;;;;;4981267;29;20432;-56
2023/01/27 04:14:22;;;;;;;12.73;5.00;;;2.60;99.90;;;;;;4980558;29;20494;-56
2023/01/27 04:16:51;;;;;;;12.90;4.57;;;2.60;99.90;;;;;;4980677;29;20523;-57
2023/01/27 04:19:19;;;;;;;9.63;4.03;;;2.70;99.90;;;;;;4980385;29;20507;-59
2023/01/27 04:21:47;;;;;;;5.27;3.20;;;2.70;99.90;;;;;;4980592;29;20436;-57
2023/01/27 04:24:23;;;;;;;7.87;4.63;;;2.70;99.90;;;;;;4980692;29;20486;-56
2023/01/27 04:26:53;;;;;;;8.23;3.80;;;2.70;99.90;;;;;;4980523;29;20440;-57
2023/01/27 04:29:20;;;;;;;7.10;5.33;;;2.70;99.90;;;;;;4980540;29;20448;-58
2023/01/27 04:31:47;;;;;;;10.33;4.77;;;2.70;99.90;;;;;;4980735;29;20471;-55
2023/01/27 04:34:14;;;;;;;9.80;5.03;;;2.70;99.90;;;;;;4980650;29;20443;-59
2023/01/27 04:36:42;;;;;;;10.10;4.80;;;2.70;99.90;;;;;;4980471;29;20483;-55
2023/01/27 04:39:10;;;;;;;7.30;4.80;;;2.70;99.90;;;;;;4980550;28;20470;-57
2023/01/27 04:41:37;;;;;;;8.93;4.23;;;2.70;99.90;;;;;;4979989;29;20475;-55
2023/01/27 04:44:05;;;;;;;10.77;4.90;;;2.70;99.90;;;;;;4979650;29;20503;-58
2023/01/27 04:46:32;;;;;;;4.27;3.20;;;2.70;99.90;;;;;;4980624;29;20463;-53
2023/01/27 04:48:59;;;;;;;9.37;4.10;;;2.70;99.90;;;;;;4981072;29;20479;-55
2023/01/27 04:51:26;;;;;;;13.30;5.70;;;2.70;99.90;;;;;;4980942;29;20459;-52
2023/01/27 04:53:54;;;;;;;9.73;3.90;;;2.70;99.90;;;;;;4980756;29;20444;-55
2023/01/27 04:56:24;;;;;;;7.53;3.33;;;2.80;99.90;;;;;;4980195;29;20495;-57
2023/01/27 04:58:51;;;;;;;5.53;3.10;;;2.70;99.90;;;;;;4979952;29;20432;-55
2023/01/27 05:01:18;;;;;;;11.20;4.47;;;2.80;99.90;;;;;;4979414;29;20443;-51
2023/01/27 05:03:45;;;;;;;7.73;3.47;;;2.70;99.90;;;;;;4979608;29;20427;-53
2023/01/27 05:06:12;;;;;;;5.47;3.70;;;2.70;99.90;;;;;;4979415;29;20444;-55
2023/01/27 05:08:39;;;;;;;5.20;3.33;;;2.80;99.90;;;;;;4979685;29;20468;-56
2023/01/27 05:11:08;;;;;;;6.23;3.83;;;2.80;99.90;;;;;;4979750;29;20459;-58
2023/01/27 05:13:35;;;;;;;7.87;3.50;;;2.70;99.90;;;;;;4979518;29;20463;-54
2023/01/27 05:16:07;;;;;;;10.23;3.10;;;2.80;99.90;;;;;;4979698;29;20440;-56
2023/01/27 05:18:34;;;;;;;5.13;3.40;;;2.80;99.90;;;;;;4979151;28;20459;-56
2023/01/27 05:21:01;;;;;;;7.10;4.00;;;2.80;99.90;;;;;;4979107;29;20451;-58
2023/01/27 05:23:36;;;;;;;4.40;2.80;;;2.80;99.90;;;;;;4979071;29;20773;-56
2023/01/27 05:26:07;;;;;;;3.97;2.50;;;2.80;99.90;;;;;;4979283;29;20427;-54
2023/01/27 05:28:35;;;;;;;5.20;3.20;;;2.80;99.90;;;;;;4979179;29;20420;-54
2023/01/27 05:31:04;;;;;;;8.13;3.83;;;2.80;99.90;;;;;;4979178;29;20559;-59
2023/01/27 05:33:31;;;;;;;5.57;2.97;;;2.80;99.90;;;;;;4978910;29;20460;-56
2023/01/27 05:36:02;;;;;;;4.47;3.93;;;2.80;99.90;;;;;;4978705;29;20448;-57
2023/01/27 05:38:30;;;;;;;8.33;3.80;;;2.90;99.90;;;;;;4978936;29;20456;-57
2023/01/27 05:40:59;;;;;;;6.90;3.90;;;2.90;99.90;;;;;;4979038;29;20439;-54
2023/01/27 05:43:28;;;;;;;5.70;3.30;;;2.90;99.90;;;;;;4979107;29;20432;-52
2023/01/27 05:46:03;;;;;;;5.83;2.97;;;2.90;99.90;;;;;;4979026;29;20464;-52
2023/01/27 05:48:30;;;;;;;4.00;2.20;;;2.90;99.90;;;;;;4978691;29;20434;-49
2023/01/27 05:50:58;;;;;;;8.60;3.37;;;2.90;99.90;;;;;;4978345;28;20484;-52
2023/01/27 05:53:25;;;;;;;8.50;3.30;;;2.90;99.90;;;;;;4978585;28;20440;-53
2023/01/27 05:55:53;;;;;;;6.70;3.40;;;2.90;99.90;;;;;;4978652;29;20431;-56
2023/01/27 05:58:20;;;;;;;4.23;3.00;;;2.90;99.90;;;;;;4977901;29;20471;-56
2023/01/27 06:00:49;;;;;;;6.80;2.90;;;2.90;99.90;;;;;;4978280;29;20455;-56
2023/01/27 06:03:16;;;;;;;5.73;3.13;;;2.90;99.90;;;;;;4978229;29;20527;-56
2023/01/27 06:05:54;;;;;;;5.37;3.33;;;2.90;99.90;;;;;;4978310;29;20472;-56
2023/01/27 06:08:21;;;;;;;4.17;2.83;;;2.90;99.90;;;;;;4978430;29;20456;-57
2023/01/27 06:10:48;;;;;;;7.20;3.17;;;2.90;99.90;;;;;;4978367;29;20440;-57
2023/01/27 06:13:15;;;;;;;3.93;2.50;;;2.90;99.90;;;;;;4978314;29;20436;-55
2023/01/27 06:15:43;;;;;;;5.90;3.03;;;2.90;99.90;;;;;;4978178;29;20471;-54
2023/01/27 06:18:12;;;;;;;5.00;2.60;;;2.90;99.90;;;;;;4978448;29;20463;-56
2023/01/27 06:20:40;;;;;;;5.10;2.43;;;2.90;99.90;;;;;;4978518;29;20444;-57
2023/01/27 06:23:07;;;;;;;7.70;3.40;;;2.90;99.90;;;;;;4977986;29;20463;-58
2023/01/27 06:25:38;;;;;;;6.43;2.60;;;2.90;99.90;;;;;;4977823;29;20432;-54
2023/01/27 06:28:05;;;;;;;5.23;2.30;;;2.90;99.90;;;;;;4978355;28;20484;-56
2023/01/27 06:30:34;;;;;;;7.97;3.40;;;2.90;99.90;;;;;;4978313;29;20436;-55
2023/01/27 06:33:01;;;;;;;6.20;3.73;;;2.90;99.90;;;;;;4977959;29;20443;-53
2023/01/27 06:35:29;;;;;;;13.20;6.47;;;2.90;99.90;;;;;;4977999;29;20429;-54
2023/01/27 06:37:58;;;;;;;5.47;2.93;;;2.90;99.90;;;;;;4978125;29;20498;-56
2023/01/27 06:40:25;;;;;;;4.23;3.70;;;2.90;99.90;;;;;;4978301;29;20468;-55
2023/01/27 06:42:52;;;;;;;5.50;3.70;;;2.90;99.90;;;;;;4978298;29;20432;-53
2023/01/27 06:45:19;;;;;;;6.23;2.77;;;2.90;99.90;;;;;;4977977;29;20439;-58
2023/01/27 06:47:46;;;;;;;16.53;4.23;;;3.00;99.90;;;;;;4977694;29;20931;-55
2023/01/27 06:50:12;;;;;;;4.90;2.57;;;3.00;99.90;;;;;;4978016;29;20447;-56
2023/01/27 06:52:41;;;;;;;13.00;3.80;;;3.00;99.90;;;;;;4977640;29;20464;-57
2023/01/27 06:55:08;;;;;;;7.33;3.50;;;3.10;99.90;;;;;;4977655;29;20462;-58
2023/01/27 06:57:35;;;;;;;12.30;3.80;;;3.10;99.90;;;;;;4977962;29;20470;-55
2023/01/27 07:00:03;;;;;;;7.40;2.80;;;3.10;99.90;;;;;;4977426;29;20458;-53
2023/01/27 07:02:30;;;;;;;9.27;4.33;;;3.10;99.90;;;;;;4977224;28;20431;-58
2023/01/27 07:04:56;;;;;;;4.90;3.07;;;3.20;99.90;;;;;;4977764;29;20472;-53
2023/01/27 07:07:23;;;;;;;5.90;3.77;;;3.20;99.90;;;;;;4977830;29;20463;-58
2023/01/27 07:09:52;;;;;;;4.60;2.87;;;3.20;99.90;;;;;;4977585;29;20444;-54
2023/01/27 07:12:19;;;;;;;6.70;4.97;;;3.20;99.90;;;;;;4977618;29;20467;-57
2023/01/27 07:14:45;;;;;;;3.80;2.80;;;3.20;99.90;;;;;;4977880;29;20443;-57
2023/01/27 07:17:12;;;;;;;8.73;3.47;;;3.30;99.90;;;;;;4977634;29;20499;-55
2023/01/27 07:19:39;;;;;;;7.10;3.00;;;3.30;99.90;;;;;;4977872;29;20444;-57
2023/01/27 07:22:06;;;;;;;6.60;4.50;;;3.30;99.90;;;;;;4977422;29;20479;-58
2023/01/27 07:24:33;;;;;;;9.10;3.80;;;3.30;99.90;;;;;;4977939;29;20456;-58
2023/01/27 07:27:01;;;;;;;6.90;3.27;;;3.40;99.90;;;;;;4977800;29;20579;-58
2023/01/27 07:29:28;;;;;;;5.60;3.63;;;3.40;99.90;;;;;;4977428;29;20486;-52
2023/01/27 07:31:55;;;;;;;8.30;3.40;;;3.40;99.90;;;;;;4977661;29;20488;-55
2023/01/27 07:34:22;;;;;;;7.63;3.03;;;3.40;99.90;;;;;;4977560;29;20451;-59
2023/01/27 07:36:49;;;;;;;9.50;4.23;;;3.40;99.90;;;;;;4977025;29;20428;-58
2023/01/27 07:39:16;;;;;;;5.97;3.00;;;3.40;99.90;;;;;;4977657;29;20471;-55
2023/01/27 07:41:43;;;;;;;13.07;6.20;;;3.40;99.90;;;;;;4977261;29;20467;-56
2023/01/27 07:44:11;;;;;;;12.83;5.03;;;3.40;99.90;;;;;;4977425;29;20451;-53
2023/01/27 07:46:38;;;;;;;7.03;3.90;;;3.40;99.90;;;;;;4977107;29;20857;-57
2023/01/27 07:49:05;;;;;;;6.27;4.27;;;3.50;99.90;;;;;;4974967;29;20456;-54
2023/01/27 07:51:32;;;;;;;9.23;5.40;;;3.50;99.90;;;;;;4974637;29;20484;-58
2023/01/27 07:53:59;;;;;;;13.10;5.50;;;3.50;99.90;;;;;;4974680;29;20443;-57
2023/01/27 07:56:27;;;;;;;11.67;4.33;;;3.50;99.90;;;;;;4973992;29;20447;-53
2023/01/27 07:58:55;;;;;;;8.93;4.97;;;3.50;99.90;;;;;;4974150;29;20563;-55
2023/01/27 08:01:24;;;;;;;17.83;5.67;;;3.60;99.90;;;;;;4974142;29;20560;-54
2023/01/27 08:03:51;;;;;;;17.70;4.50;;;3.60;99.90;;;;;;4974081;29;20480;-57
2023/01/27 08:06:18;;;;;;;8.83;5.50;;;3.60;99.90;;;;;;4973687;29;20451;-57
2023/01/27 08:08:45;;;;;;;10.20;6.23;;;3.60;99.90;;;;;;4974403;29;20448;-55
2023/01/27 08:11:13;;;;;;;11.30;5.57;;;3.60;99.90;;;;;;4974745;29;20431;-55
2023/01/27 08:13:41;;;;;;;11.07;6.07;;;3.70;99.90;;;;;;4975925;28;20447;-57
2023/01/27 08:16:11;;;;;;;7.20;3.90;;;3.80;99.90;;;;;;4978019;29;20459;-57
2023/01/27 08:18:40;;;;;;;8.33;5.10;;;3.80;99.90;;;;;;4977727;29;20479;-56
2023/01/27 08:21:10;;;;;;;13.87;6.17;;;3.80;99.90;;;;;;4976592;29;20467;-56
2023/01/27 08:23:37;;;;;;;15.93;5.77;;;3.90;99.90;;;;;;4977623;29;20506;-59
2023/01/27 08:26:08;;;;;;;9.10;4.10;;;3.90;99.90;;;;;;4977011;29;20471;-56
2023/01/27 08:28:38;;;;;;;6.53;4.00;;;4.00;99.90;;;;;;4976561;29;20447;-57
2023/01/27 08:31:06;;;;;;;8.73;4.47;;;4.00;99.90;;;;;;4976456;29;20444;-55
2023/01/27 08:33:34;;;;;;;7.37;4.07;;;4.00;99.90;;;;;;4976273;29;20475;-56
2023/01/27 08:36:09;;;;;;;11.00;5.20;;;4.10;99.90;;;;;;4976835;29;20460;-54
2023/01/27 08:38:40;;;;;;;13.83;5.00;;;4.10;99.90;;;;;;4976548;29;20487;-57
2023/01/27 08:41:09;;;;;;;7.23;3.80;;;4.10;99.90;;;;;;4976571;29;20425;-57
2023/01/27 08:43:36;;;;;;;8.27;4.60;;;4.10;99.90;;;;;;4975983;29;20471;-58
2023/01/27 08:46:03;;;;;;;5.00;3.77;;;4.10;99.90;;;;;;4976242;29;20472;-59
2023/01/27 08:48:31;;;;;;;8.07;5.43;;;4.20;99.90;;;;;;4975989;29;20444;-52
2023/01/27 08:50:59;;;;;;;9.93;4.03;;;4.20;99.90;;;;;;4975609;29;20431;-57
2023/01/27 08:53:29;;;;;;;5.83;4.07;;;4.20;99.90;;;;;;4975347;29;20454;-52
2023/01/27 08:55:58;;;;;;;6.30;4.70;;;4.30;99.90;;;;;;4975314;29;20478;-55
2023/01/27 08:58:25;;;;;;;8.77;4.43;;;4.30;99.90;;;;;;4975121;29;20543;-55
2023/01/27 09:00:52;;;;;;;11.67;6.10;;;4.30;99.90;;;;;;4975138;29;20460;-59
2023/01/27 09:03:19;;;;;;;5.77;4.03;;;4.40;99.90;;;;;;4974491;29;20814;-56
2023/01/27 09:05:48;;;;;;;6.60;4.30;;;4.40;99.90;;;;;;4974780;29;20547;-55
2023/01/27 09:08:15;;;;;;;8.73;4.80;;;4.50;99.90;;;;;;4974370;29;20451;-60
2023/01/27 09:10:43;;;;;;;7.80;3.70;;;4.50;99.90;;;;;;4974431;29;20464;-55
2023/01/27 09:13:11;;;;;;;5.90;4.47;;;4.50;99.90;;;;;;4974489;29;20458;-58
2023/01/27 09:15:39;;;;;;;7.13;5.20;;;4.50;99.90;;;;;;4974271;29;20511;-56
2023/01/27 09:18:06;;;;;;;7.83;4.50;;;4.50;99.90;;;;;;4973391;29;20848;-58
2023/01/27 09:20:35;;;;;;;7.63;4.30;;;4.60;99.90;;;;;;4973947;29;20546;-59
2023/01/27 09:23:04;;;;;;;9.90;4.43;;;4.60;99.90;;;;;;4974922;29;20455;-57
2023/01/27 09:25:31;;;;;;;7.37;4.73;;;4.60;99.90;;;;;;4972670;28;20533;-55
2023/01/27 09:28:00;;;;;;;4.17;3.70;;;4.60;99.90;;;;;;4974343;29;20443;-58
2023/01/27 09:30:28;;;;;;;8.20;4.30;;;4.60;99.90;;;;;;4975015;29;20960;-57
2023/01/27 09:32:59;;;;;;;6.77;4.17;;;4.60;99.90;;;;;;4974491;29;20436;-55
2023/01/27 09:35:30;;;;;;;7.33;5.07;;;4.60;99.90;;;;;;4974424;29;20482;-52
2023/01/27 09:37:58;;;;;;;6.77;3.73;;;4.60;99.90;;;;;;4974888;29;20478;-56
2023/01/27 09:40:31;;;;;;;5.70;3.53;;;4.60;99.90;;;;;;4974074;29;20478;-55
2023/01/27 09:43:28;;;;;;;6.80;3.80;;;4.60;99.90;;;;;;4979184;29;20459;-54
2023/01/27 09:46:25;;;;;;;3.90;3.13;;;4.60;99.90;;;;;;4978594;29;20478;-55
2023/01/27 09:49:16;;;;;;;6.40;3.70;;;4.70;99.90;;;;;;4969327;29;20487;-55
2023/01/27 09:51:53;;;;;;;5.27;3.90;;;4.70;99.90;;;;;;4979295;29;20472;-58
2023/01/27 09:54:48;;;;;;;6.10;3.63;;;4.70;99.90;;;;;;4978478;29;20450;-49
2023/01/27 09:57:20;;;;;;;5.57;3.77;;;5.30;99.90;;;;;;4978496;29;20472;-51
2023/01/27 10:00:01;;;;;;;3.47;2.33;;;5.20;99.90;;;;;;4978463;29;20467;-49
2023/01/27 10:02:46;;;;;;;5.63;3.40;;;5.10;99.90;;;;;;4977837;29;20478;-53
2023/01/27 10:05:29;;;;;;;6.80;5.70;;;5.10;99.90;;;;;;4977440;29;20882;-51
2023/01/27 10:08:20;;;;;;;5.00;4.00;;;5.00;99.90;;;;;;4977648;29;20456;-51
2023/01/27 10:10:58;;;;;;;5.20;3.23;;;5.00;99.90;;;;;;4977007;29;20436;-55
2023/01/27 10:13:35;;;;;;;7.80;4.07;;;4.90;99.90;;;;;;4977150;29;20862;-52
2023/01/27 10:16:27;;;;;;;5.90;2.93;;;4.90;99.90;;;;;;4976893;29;20494;-54
2023/01/27 10:19:06;;;;;;;5.13;3.57;;;4.90;99.90;;;;;;4977753;29;20597;-53
2023/01/27 10:21:45;;;;;;;7.80;4.10;;;4.80;99.90;;;;;;4977751;29;20511;-53
2023/01/27 10:24:25;;;;;;;5.30;3.03;;;4.80;99.90;;;;;;4977642;29;20484;-52
2023/01/27 10:26:56;;;;;;;4.00;3.60;;;4.80;99.90;;;;;;4977790;29;20503;-57
2023/01/27 10:29:25;;;;;;;5.03;3.27;;;4.80;99.90;;;;;;4977233;29;20475;-54
2023/01/27 10:32:00;;;;;;;6.87;3.40;;;4.80;99.90;;;;;;4977487;29;20465;-49
2023/01/27 10:34:33;;;;;;;3.40;3.10;;;4.80;99.90;;;;;;4978395;29;20459;-56
2023/01/27 10:37:17;;;;;;;4.77;3.20;;;4.70;99.90;;;;;;4978006;28;20476;-57
2023/01/27 10:39:52;;;;;;;6.00;3.10;;;4.70;99.90;;;;;;4977746;29;20455;-54
2023/01/27 10:42:28;;;;;;;6.60;3.60;;;4.80;99.90;;;;;;4977243;29;20475;-51
2023/01/27 10:45:18;;;;;;;4.40;3.47;;;4.80;99.90;;;;;;4976782;29;20432;-52
2023/01/27 10:48:04;;;;;;;6.93;3.90;;;4.90;99.90;;;;;;4976940;29;20491;-56
2023/01/27 10:50:36;;;;;;;5.27;3.07;;;4.80;99.90;;;;;;4967863;29;20431;-53
2023/01/27 10:53:12;;;;;;;6.37;3.77;;;4.90;99.90;;;;;;4956319;29;20504;-55
2023/01/27 10:55:45;;;;;;;5.60;3.33;;;4.90;99.90;;;;;;4956667;29;20494;-56
2023/01/27 10:58:19;;;;;;;5.93;3.40;;;5.00;99.90;;;;;;4957288;29;20480;-56
2023/01/27 11:00:50;;;;;;;3.33;2.77;;;5.00;99.90;;;;;;4956579;29;20464;-55
2023/01/27 11:03:25;;;;;;;6.47;2.90;;;5.00;99.90;;;;;;4956627;29;20471;-55
2023/01/27 11:05:55;;;;;;;5.43;2.63;;;5.00;99.90;;;;;;4957616;29;20541;-54
2023/01/27 11:08:25;;;;;;;2.80;2.20;;;5.00;99.90;;;;;;4972105;29;20443;-55
2023/01/27 11:13:40;;;;;;;5.53;2.83;;;5.00;99.90;;;;;;4971164;29;20412;-55
2023/01/27 11:16:14;;;;;;;5.43;2.43;;;5.10;99.90;;;;;;4970546;29;20472;-53
2023/01/27 11:18:45;;;;;;;3.90;2.80;;;5.10;99.90;;;;;;4970990;29;20467;-56
2023/01/27 11:21:18;;;;;;;4.23;2.10;;;5.20;99.90;;;;;;4971006;29;20483;-56
2023/01/27 11:23:50;;;;;;;3.67;2.40;;;5.20;99.90;;;;;;4969553;29;20511;-56
2023/01/27 11:26:26;;;;;;;10.57;2.80;;;5.30;99.90;;;;;;4969991;29;20432;-56
2023/01/27 11:28:59;;;;;;;5.80;2.30;;;5.40;99.90;;;;;;4970129;29;20438;-56
2023/01/27 11:31:35;;;;;;;5.10;2.90;;;5.40;99.90;;;;;;4970855;29;20471;-56
2023/01/27 11:34:10;;;;;;;4.57;2.40;;;5.40;99.90;;;;;;4973523;29;20551;-54
2023/01/27 11:36:37;;;;;;;3.90;2.23;;;5.40;99.90;;;;;;4977233;29;20423;-55
2023/01/27 11:39:05;;;;;;;10.10;2.10;;;5.40;99.90;;;;;;4976145;29;20915;-56
2023/01/27 11:41:33;;;;;;;4.57;2.40;;;5.40;99.90;;;;;;4976648;29;20448;-51
2023/01/27 11:44:06;;;;;;;1.93;1.73;;;5.40;99.90;;;;;;4976615;29;20455;-58
2023/01/27 11:46:35;;;;;;;4.07;1.90;;;5.40;99.90;;;;;;4977745;29;20439;-55
2023/01/27 11:49:02;;;;;;;3.07;2.40;;;5.30;99.90;;;;;;4979396;28;20444;-54
2023/01/27 11:51:37;;;;;;;5.70;2.30;;;5.30;99.90;;;;;;4980705;29;20456;-56
2023/01/27 11:54:10;;;;;;;10.30;2.83;;;5.30;99.90;;;;;;4980618;29;20427;-53
2023/01/27 11:56:40;;;;;;;2.33;2.00;;;5.40;99.90;;;;;;4980681;29;20488;-55
2023/01/27 11:59:13;;;;;;;3.27;2.43;;;5.40;99.90;;;;;;4979820;29;20471;-57
2023/01/27 12:01:46;;;;;;;2.90;2.30;;;5.40;99.90;;;;;;4980269;29;20468;-56
2023/01/27 12:04:22;;;;;;;5.07;2.47;;;5.50;99.90;;;;;;4979807;29;20431;-54
2023/01/27 12:06:55;;;;;;;3.00;2.67;;;5.50;99.90;;;;;;4979525;29;20467;-56
2023/01/27 12:09:34;;;;;;;4.73;2.27;;;5.50;99.90;;;;;;4980538;29;20439;-55
2023/01/27 12:12:23;;;;;;;4.83;2.00;;;5.50;99.90;;;;;;4980738;29;20420;-55
2023/01/27 12:14:52;;;;;;;4.73;2.40;;;5.50;99.90;;;;;;4981190;29;20451;-50
2023/01/27 12:17:30;;;;;;;8.90;2.60;;;5.60;99.90;;;;;;4980767;29;20436;-57
2023/01/27 12:20:00;;;;;;;3.83;1.77;;;5.60;99.90;;;;;;4981357;28;20479;-56
2023/01/27 12:22:35;;;;;;;5.97;2.70;;;5.60;99.90;;;;;;4980678;29;20457;-54
2023/01/27 12:25:05;;;;;;;5.30;2.00;;;5.60;99.90;;;;;;4980030;29;20471;-57
2023/01/27 12:27:39;;;;;;;3.63;2.50;;;5.60;99.90;;;;;;4980031;29;20834;-54
2023/01/27 12:30:17;;;;;;;4.60;2.63;;;5.60;99.90;;;;;;4979538;29;20497;-56
2023/01/27 12:32:47;;;;;;;3.37;2.13;;;5.50;99.90;;;;;;4979969;29;20463;-55
2023/01/27 12:35:21;;;;;;;6.03;3.60;;;5.50;99.90;;;;;;4979547;29;20511;-57
2023/01/27 12:38:04;;;;;;;4.70;2.50;;;5.50;99.90;;;;;;4979166;29;20412;-55
2023/01/27 12:40:33;;;;;;;4.47;2.80;;;5.50;99.90;;;;;;4979554;29;20464;-52
2023/01/27 12:43:10;;;;;;;7.23;2.60;;;5.50;99.90;;;;;;4980350;29;20440;-56
2023/01/27 12:45:38;;;;;;;8.50;3.87;;;5.50;99.90;;;;;;4980125;29;20495;-56
2023/01/27 12:48:21;;;;;;;4.87;3.27;;;5.50;99.90;;;;;;4979927;29;20440;-59
2023/01/27 12:50:56;;;;;;;11.10;2.97;;;5.50;99.90;;;;;;4979868;29;20424;-55
2023/01/27 12:53:26;;;;;;;4.17;3.77;;;5.50;99.90;;;;;;4979765;29;20531;-57
2023/01/27 12:56:05;;;;;;;6.77;3.40;;;5.50;99.90;;;;;;4978818;29;20448;-51
2023/01/27 12:58:35;;;;;;;6.03;3.20;;;5.50;99.90;;;;;;4978589;29;20471;-57
2023/01/27 13:01:05;;;;;;;9.00;2.93;;;5.40;99.90;;;;;;4977453;29;20484;-53
2023/01/27 13:03:41;;;;;;;3.07;2.77;;;5.30;99.90;;;;;;4979941;29;20460;-51
2023/01/27 13:06:09;;;;;;;7.50;4.27;;;5.30;99.90;;;;;;4978936;29;20443;-53
2023/01/27 13:08:40;;;;;;;6.27;4.17;;;5.30;99.90;;;;;;4980054;29;20435;-54
2023/01/27 13:11:07;;;;;;;12.80;5.10;;;5.30;99.90;;;;;;4980119;29;20782;-53
2023/01/27 13:13:35;;;;;;;6.27;3.10;;;5.20;99.90;;;;;;4980135;29;20428;-52
2023/01/27 13:16:08;;;;;;;6.30;2.70;;;5.20;99.90;;;;;;4979555;29;20455;-54
2023/01/27 13:18:38;;;;;;;5.30;4.17;;;5.20;99.90;;;;;;4979423;29;20427;-56
2023/01/27 13:21:14;;;;;;;6.90;3.03;;;5.10;99.90;;;;;;4979688;29;20467;-52
2023/01/27 13:23:42;;;;;;;8.70;3.30;;;5.10;99.90;;;;;;4979852;29;20428;-52
2023/01/27 13:26:17;;;;;;;6.10;3.00;;;5.10;99.90;;;;;;4979720;29;20451;-56
2023/01/27 13:28:53;;;;;;;5.60;3.50;;;5.00;99.90;;;;;;4979610;29;20494;-55
2023/01/27 13:31:32;;;;;;;14.73;3.50;;;5.00;99.90;;;;;;4979160;29;20438;-54
2023/01/27 13:34:04;;;;;;;5.30;3.47;;;5.00;99.90;;;;;;4979581;29;20439;-52
2023/01/27 13:36:37;;;;;;;6.70;2.87;;;5.00;99.90;;;;;;4978942;29;20455;-55
2023/01/27 13:39:16;;;;;;;5.30;3.60;;;5.00;99.90;;;;;;4978864;29;20487;-55
2023/01/27 13:41:48;;;;;;;8.63;3.20;;;4.90;99.90;;;;;;4979425;29;20463;-55